Time;durP1;ratioP1;P1;durP2;ratioP2;P2;SDS_P1;SDS_P2;PMS_P1;PMS_P2;Temp;Humidity;BMP_temperature;BMP_pressure;BME280_temperature;BME280_humidity;BME280_pressure;Samples;Min_cycle;Max_cycle;Signal;HPM_P1;HPM_P2
2020/12/15 00:00:11;;;;;;;2.20;1.60;;;22.10;53.90;;;;;;5136663;27;20180;-66
2020/12/15 00:02:37;;;;;;;1.60;1.17;;;22.10;53.90;;;;;;5136406;27;20729;-66
2020/12/15 00:05:04;;;;;;;3.40;1.63;;;22.10;53.90;;;;;;5136563;27;20164;-66
2020/12/15 00:07:30;;;;;;;2.40;1.43;;;22.10;54.00;;;;;;5135270;27;20179;-66
2020/12/15 00:09:56;;;;;;;1.70;1.50;;;22.10;54.00;;;;;;5136486;27;20889;-66
2020/12/15 00:12:21;;;;;;;1.87;1.40;;;22.10;54.00;;;;;;5136343;27;20192;-66
2020/12/15 00:14:47;;;;;;;1.70;1.30;;;22.10;54.00;;;;;;5136363;27;20471;-66
2020/12/15 00:17:12;;;;;;;1.80;1.50;;;22.10;54.00;;;;;;5136305;27;20172;-66
2020/12/15 00:19:38;;;;;;;1.80;1.47;;;22.10;54.00;;;;;;5136231;27;20259;-66
2020/12/15 00:22:06;;;;;;;2.40;1.70;;;22.00;53.90;;;;;;5136253;27;20196;-66
2020/12/15 00:24:32;;;;;;;2.07;1.50;;;22.10;54.00;;;;;;5136163;27;20168;-66
2020/12/15 00:26:58;;;;;;;2.63;1.93;;;22.00;53.90;;;;;;5136095;27;20464;-65
2020/12/15 00:29:23;;;;;;;1.80;1.57;;;22.00;53.90;;;;;;5136328;27;20409;-66
2020/12/15 00:31:49;;;;;;;1.63;1.40;;;22.00;53.90;;;;;;5135793;27;20208;-66
2020/12/15 00:34:14;;;;;;;1.50;1.30;;;22.00;54.00;;;;;;5136010;27;20164;-65
2020/12/15 00:36:40;;;;;;;1.70;1.40;;;22.00;54.00;;;;;;5135912;27;20531;-66
2020/12/15 00:39:06;;;;;;;1.80;1.40;;;22.00;54.00;;;;;;5135887;27;20297;-66
2020/12/15 00:41:31;;;;;;;1.63;1.20;;;22.00;54.00;;;;;;5135850;27;20206;-65
2020/12/15 00:43:57;;;;;;;1.30;1.20;;;22.00;54.00;;;;;;5136106;27;20169;-66
2020/12/15 00:46:22;;;;;;;2.40;1.37;;;22.00;54.00;;;;;;5134470;27;20263;-66
2020/12/15 00:48:48;;;;;;;1.77;1.50;;;21.90;53.90;;;;;;5135998;27;20259;-66
2020/12/15 00:51:18;;;;;;;2.27;1.20;;;21.90;54.00;;;;;;5135764;27;20179;-65
2020/12/15 00:53:45;;;;;;;2.03;1.50;;;22.00;54.00;;;;;;5135948;27;20168;-65
2020/12/15 00:56:11;;;;;;;1.47;1.30;;;21.90;54.00;;;;;;5135565;27;20394;-65
2020/12/15 00:58:37;;;;;;;1.60;1.30;;;21.90;54.00;;;;;;5135791;27;20455;-65
2020/12/15 01:01:06;;;;;;;2.60;1.40;;;21.90;54.10;;;;;;5134493;27;20923;-66
2020/12/15 01:03:33;;;;;;;1.67;1.30;;;21.90;54.60;;;;;;5135390;27;20279;-66
2020/12/15 01:05:58;;;;;;;2.00;1.67;;;21.90;54.10;;;;;;5135410;27;20405;-65
2020/12/15 01:08:24;;;;;;;1.60;1.20;;;21.90;54.60;;;;;;5135852;27;20901;-66
2020/12/15 01:10:51;;;;;;;2.40;1.57;;;21.90;54.10;;;;;;5135538;27;20308;-66
2020/12/15 01:13:17;;;;;;;1.97;1.77;;;21.90;54.60;;;;;;5135447;27;20535;-66
2020/12/15 01:15:43;;;;;;;1.60;1.50;;;21.90;54.10;;;;;;5136011;27;20417;-66
2020/12/15 01:18:09;;;;;;;1.67;1.43;;;21.90;54.10;;;;;;5135171;27;20161;-65
2020/12/15 01:20:34;;;;;;;1.47;1.33;;;21.80;54.00;;;;;;5135322;27;20167;-64
2020/12/15 01:23:00;;;;;;;1.83;1.10;;;21.90;54.20;;;;;;5134982;27;20253;-66
2020/12/15 01:25:26;;;;;;;1.80;1.50;;;21.90;54.20;;;;;;5135119;27;20164;-66
2020/12/15 01:27:51;;;;;;;1.53;1.33;;;21.80;54.10;;;;;;5134961;27;20167;-66
2020/12/15 01:30:17;;;;;;;1.67;1.30;;;21.80;54.10;;;;;;5134855;27;20168;-65
2020/12/15 01:32:42;;;;;;;1.60;1.37;;;21.90;54.20;;;;;;5134802;27;20199;-66
2020/12/15 01:35:08;;;;;;;1.50;1.30;;;21.90;54.20;;;;;;5134998;27;20164;-65
2020/12/15 01:37:35;;;;;;;1.50;1.23;;;21.80;54.10;;;;;;5134710;27;20251;-65
2020/12/15 01:40:02;;;;;;;2.07;1.47;;;21.90;54.20;;;;;;5134821;27;20172;-66
2020/12/15 01:42:27;;;;;;;1.50;1.40;;;21.90;54.20;;;;;;5133202;27;20488;-66
2020/12/15 01:44:53;;;;;;;1.97;1.50;;;21.90;54.20;;;;;;5134720;27;20490;-66
2020/12/15 01:47:19;;;;;;;1.50;1.23;;;21.80;54.00;;;;;;5134850;27;20160;-66
2020/12/15 01:49:45;;;;;;;1.67;1.37;;;21.90;54.10;;;;;;5133325;27;20173;-66
2020/12/15 01:52:13;;;;;;;2.10;1.50;;;21.80;54.00;;;;;;5133997;27;20208;-66
2020/12/15 01:54:39;;;;;;;1.27;1.10;;;21.80;54.00;;;;;;5134475;27;20409;-66
2020/12/15 01:57:05;;;;;;;1.63;1.30;;;21.80;54.00;;;;;;5134475;27;20409;-66
2020/12/15 01:59:31;;;;;;;1.33;1.23;;;21.90;54.10;;;;;;5134368;27;20402;-66
2020/12/15 02:01:56;;;;;;;1.47;1.37;;;21.80;54.00;;;;;;5134537;27;20575;-66
2020/12/15 02:04:22;;;;;;;2.17;1.57;;;21.90;54.10;;;;;;5133032;27;20266;-66
2020/12/15 02:06:50;;;;;;;2.13;1.60;;;21.80;54.00;;;;;;5134317;27;20210;-66
2020/12/15 02:09:16;;;;;;;2.43;1.40;;;21.90;54.10;;;;;;5134561;27;20520;-66
2020/12/15 02:11:47;;;;;;;2.33;1.50;;;21.80;54.00;;;;;;5134152;27;20567;-66
2020/12/15 02:14:13;;;;;;;1.40;1.20;;;21.90;54.10;;;;;;5133040;27;20927;-66
2020/12/15 02:16:49;;;;;;;1.97;1.43;;;21.90;54.10;;;;;;5134199;27;20406;-66
2020/12/15 02:19:17;;;;;;;1.57;1.37;;;21.90;54.10;;;;;;5134193;27;20386;-66
2020/12/15 02:21:57;;;;;;;1.47;1.23;;;21.90;54.10;;;;;;5133976;27;20464;-66
2020/12/15 02:24:24;;;;;;;1.80;1.53;;;21.90;54.10;;;;;;5134086;27;20402;-65
2020/12/15 02:26:51;;;;;;;1.97;1.53;;;21.90;54.20;;;;;;5134066;27;20402;-66
2020/12/15 02:29:17;;;;;;;2.23;1.10;;;21.80;54.10;;;;;;5134051;27;20488;-66
2020/12/15 02:31:43;;;;;;;1.50;1.17;;;21.80;54.10;;;;;;5132537;28;20532;-66
2020/12/15 02:34:09;;;;;;;1.80;1.50;;;21.80;54.10;;;;;;5134260;28;20169;-66
2020/12/15 02:36:34;;;;;;;1.63;1.40;;;21.80;54.10;;;;;;5134261;28;20278;-66
2020/12/15 02:39:17;;;;;;;2.33;1.10;;;21.80;54.10;;;;;;5135014;28;20172;-66
2020/12/15 02:41:42;;;;;;;1.37;1.27;;;21.80;54.10;;;;;;5133798;27;20203;-65
2020/12/15 02:44:09;;;;;;;1.53;1.30;;;21.80;54.20;;;;;;5134209;28;20809;-66
2020/12/15 02:46:34;;;;;;;1.93;1.60;;;21.80;54.10;;;;;;5133932;27;20157;-65
2020/12/15 02:49:01;;;;;;;1.57;1.30;;;21.80;54.10;;;;;;5133901;27;20501;-65
2020/12/15 02:51:28;;;;;;;3.10;1.47;;;21.80;54.20;;;;;;5133749;27;20251;-65
2020/12/15 02:53:54;;;;;;;2.60;1.70;;;21.80;54.20;;;;;;5133882;27;20587;-66
2020/12/15 02:56:24;;;;;;;2.03;1.40;;;21.80;54.20;;;;;;5133773;28;20409;-66
2020/12/15 02:58:51;;;;;;;2.00;1.73;;;21.80;54.20;;;;;;5134108;27;20390;-65
2020/12/15 03:01:17;;;;;;;1.37;1.13;;;21.80;54.20;;;;;;5133603;27;20474;-64
2020/12/15 03:03:43;;;;;;;1.87;1.17;;;21.80;54.20;;;;;;5134607;27;20413;-65
2020/12/15 03:06:08;;;;;;;1.67;1.23;;;21.80;54.20;;;;;;5137718;27;20401;-66
2020/12/15 03:08:34;;;;;;;1.60;1.17;;;21.70;54.10;;;;;;5137923;27;20402;-65
2020/12/15 03:11:02;;;;;;;1.77;1.43;;;21.70;54.20;;;;;;5137682;27;20169;-65
2020/12/15 03:13:28;;;;;;;1.80;1.30;;;21.70;54.20;;;;;;5137540;27;20698;-65
2020/12/15 03:15:54;;;;;;;2.67;1.53;;;21.70;54.20;;;;;;5137801;27;20397;-65
2020/12/15 03:18:19;;;;;;;1.77;1.57;;;21.70;54.20;;;;;;5137504;27;20161;-65
2020/12/15 03:20:49;;;;;;;1.57;1.20;;;21.70;54.20;;;;;;5137440;27;20574;-65
2020/12/15 03:23:16;;;;;;;1.73;1.30;;;21.70;54.20;;;;;;5137519;27;20196;-65
2020/12/15 03:25:42;;;;;;;2.10;1.23;;;21.70;54.20;;;;;;5137331;27;20410;-65
2020/12/15 03:28:08;;;;;;;1.50;1.27;;;21.70;54.20;;;;;;5137242;27;20404;-65
2020/12/15 03:30:35;;;;;;;1.40;1.10;;;21.70;54.20;;;;;;5137071;27;20216;-66
2020/12/15 03:33:00;;;;;;;2.17;1.50;;;21.70;54.20;;;;;;5136288;27;20196;-65
2020/12/15 03:35:27;;;;;;;6.70;1.43;;;21.70;54.20;;;;;;5137157;27;20397;-66
2020/12/15 03:37:54;;;;;;;1.50;1.23;;;21.70;54.20;;;;;;5137330;27;20406;-66
2020/12/15 03:40:20;;;;;;;1.93;1.30;;;21.70;54.10;;;;;;5137288;27;20402;-66
2020/12/15 03:42:46;;;;;;;2.10;1.50;;;21.80;54.20;;;;;;5136814;27;20457;-66
2020/12/15 03:45:13;;;;;;;1.50;1.33;;;21.80;54.20;;;;;;5136961;27;20168;-66
2020/12/15 03:47:39;;;;;;;1.93;1.50;;;21.70;54.10;;;;;;5137220;27;20635;-66
2020/12/15 03:50:04;;;;;;;1.50;1.40;;;21.80;54.20;;;;;;5136834;27;20546;-66
2020/12/15 03:52:30;;;;;;;1.57;1.13;;;21.70;54.10;;;;;;5136744;27;20283;-65
2020/12/15 03:54:56;;;;;;;1.50;1.40;;;21.80;54.20;;;;;;5136823;27;20176;-66
2020/12/15 03:57:21;;;;;;;2.80;1.40;;;21.70;54.10;;;;;;5136715;27;20296;-66
2020/12/15 03:59:47;;;;;;;1.20;1.10;;;21.70;54.10;;;;;;5136756;27;20642;-65
2020/12/15 04:02:12;;;;;;;1.53;1.23;;;21.70;54.10;;;;;;5136455;27;20287;-66
2020/12/15 04:04:38;;;;;;;1.00;0.90;;;21.70;54.10;;;;;;5136747;27;20171;-66
2020/12/15 04:07:03;;;;;;;1.80;1.40;;;21.70;54.10;;;;;;5136852;27;20661;-66
2020/12/15 04:09:29;;;;;;;1.63;1.30;;;21.70;54.10;;;;;;5136484;27;20161;-66
2020/12/15 04:11:54;;;;;;;1.43;1.33;;;21.70;54.70;;;;;;5135236;27;20192;-64
2020/12/15 04:14:20;;;;;;;3.30;1.40;;;21.70;54.20;;;;;;5136161;27;20196;-66
2020/12/15 04:16:45;;;;;;;1.40;1.27;;;21.70;54.20;;;;;;5136708;27;20172;-66
2020/12/15 04:19:11;;;;;;;1.73;1.43;;;21.70;54.20;;;;;;5136314;27;20176;-66
2020/12/15 04:21:37;;;;;;;2.07;1.40;;;21.70;54.20;;;;;;5136141;27;20235;-65
2020/12/15 04:24:02;;;;;;;2.10;1.70;;;21.70;54.20;;;;;;5136243;27;20637;-66
2020/12/15 04:26:28;;;;;;;1.20;1.10;;;21.70;54.20;;;;;;5136258;27;20164;-66
2020/12/15 04:28:54;;;;;;;1.20;1.03;;;21.70;54.20;;;;;;5136462;27;20534;-65
2020/12/15 04:31:19;;;;;;;1.63;1.43;;;21.70;54.30;;;;;;5136071;27;20718;-65
2020/12/15 04:33:45;;;;;;;1.57;1.40;;;21.70;54.20;;;;;;5136003;27;20171;-65
2020/12/15 04:36:10;;;;;;;2.00;1.50;;;21.70;54.20;;;;;;5136011;27;20164;-65
2020/12/15 04:38:36;;;;;;;1.50;1.30;;;21.70;54.20;;;;;;5134658;27;20201;-65
2020/12/15 04:41:02;;;;;;;5.70;1.50;;;21.70;54.30;;;;;;5135788;27;20647;-66
2020/12/15 04:43:32;;;;;;;2.17;1.40;;;21.60;54.20;;;;;;5135762;27;20180;-66
2020/12/15 04:46:00;;;;;;;1.57;1.47;;;21.70;54.30;;;;;;5136155;27;20165;-66
2020/12/15 04:48:28;;;;;;;1.97;1.17;;;21.60;54.20;;;;;;5136023;27;20488;-65
2020/12/15 04:50:58;;;;;;;1.73;1.60;;;21.60;54.30;;;;;;5135706;27;20402;-65
2020/12/15 04:53:27;;;;;;;2.17;1.43;;;21.60;54.30;;;;;;5135582;27;20503;-66
2020/12/15 04:55:56;;;;;;;1.40;1.10;;;21.60;54.30;;;;;;5135640;27;20813;-66
2020/12/15 04:58:23;;;;;;;1.90;1.40;;;21.60;54.30;;;;;;5135805;27;20491;-66
2020/12/15 05:00:49;;;;;;;1.73;1.50;;;21.60;54.30;;;;;;5135459;27;20402;-66
2020/12/15 05:03:20;;;;;;;1.50;1.40;;;21.60;54.40;;;;;;5135271;27;20449;-66
2020/12/15 05:05:50;;;;;;;1.13;1.03;;;21.60;54.40;;;;;;5135687;27;20398;-66
2020/12/15 05:08:17;;;;;;;1.80;1.50;;;21.50;54.30;;;;;;5135292;27;20780;-65
2020/12/15 05:10:43;;;;;;;1.97;1.37;;;21.50;54.40;;;;;;5135317;27;20421;-65
2020/12/15 05:13:08;;;;;;;1.80;1.47;;;21.50;54.40;;;;;;5135137;27;20932;-66
2020/12/15 05:15:34;;;;;;;1.43;1.10;;;21.50;54.40;;;;;;5135430;27;20175;-66
2020/12/15 05:18:04;;;;;;;2.20;1.37;;;21.50;54.50;;;;;;5135499;27;20616;-65
2020/12/15 05:20:31;;;;;;;1.10;0.87;;;21.50;54.50;;;;;;5135416;27;20172;-65
2020/12/15 05:22:57;;;;;;;2.03;1.10;;;21.50;54.50;;;;;;5135188;27;20903;-66
2020/12/15 05:25:37;;;;;;;2.33;1.43;;;21.50;54.50;;;;;;5135229;27;20402;-65
2020/12/15 05:28:11;;;;;;;1.27;1.03;;;21.50;54.50;;;;;;5134392;27;20461;-65
2020/12/15 05:30:37;;;;;;;2.10;1.30;;;21.50;54.50;;;;;;5132895;22;20490;-66
2020/12/15 05:33:02;;;;;;;2.07;1.23;;;21.50;54.60;;;;;;5093871;28;20424;-65
2020/12/15 05:35:35;;;;;;;1.40;1.30;;;21.50;54.80;;;;;;5094022;28;20257;-66
2020/12/15 05:38:04;;;;;;;1.40;1.30;;;21.50;54.50;;;;;;5094190;28;20150;-66
2020/12/15 05:40:30;;;;;;;1.37;1.23;;;21.50;54.50;;;;;;5093998;28;20395;-66
2020/12/15 05:43:01;;;;;;;1.53;1.10;;;21.50;54.50;;;;;;5093735;28;20601;-66
2020/12/15 05:45:31;;;;;;;1.43;1.10;;;21.50;54.40;;;;;;5094119;28;20398;-66
2020/12/15 05:48:18;;;;;;;1.13;1.00;;;21.50;54.40;;;;;;5094304;28;20403;-66
2020/12/15 05:50:43;;;;;;;1.50;1.40;;;21.50;54.40;;;;;;5093872;28;20396;-65
2020/12/15 05:53:11;;;;;;;1.97;1.60;;;21.50;54.40;;;;;;5093523;28;20487;-66
2020/12/15 05:55:39;;;;;;;1.63;1.37;;;21.50;54.40;;;;;;5093888;28;20534;-65
2020/12/15 05:58:05;;;;;;;2.00;1.50;;;21.50;54.40;;;;;;5093523;28;20507;-65
2020/12/15 06:00:32;;;;;;;1.30;1.20;;;21.50;54.30;;;;;;5093461;28;20443;-64
2020/12/15 06:03:05;;;;;;;1.10;1.00;;;21.50;54.90;;;;;;5075200;28;20467;-66
2020/12/15 06:05:33;;;;;;;1.77;1.27;;;21.60;54.40;;;;;;5093419;28;20457;-66
2020/12/15 06:08:00;;;;;;;2.03;1.40;;;21.60;54.30;;;;;;5093334;28;20400;-65
2020/12/15 06:10:28;;;;;;;2.30;1.47;;;21.60;54.30;;;;;;5093690;28;20404;-66
2020/12/15 06:12:55;;;;;;;4.40;1.57;;;21.60;54.20;;;;;;5093223;28;20434;-66
2020/12/15 06:15:21;;;;;;;2.27;1.70;;;21.60;54.20;;;;;;5093335;28;20415;-66
2020/12/15 06:17:49;;;;;;;1.90;1.70;;;21.60;54.10;;;;;;5093314;28;20411;-66
2020/12/15 06:20:19;;;;;;;4.50;1.67;;;21.60;54.10;;;;;;5093434;28;20173;-67
2020/12/15 06:22:48;;;;;;;2.13;1.90;;;21.60;54.10;;;;;;5093344;28;21045;-66
2020/12/15 06:25:28;;;;;;;1.93;1.50;;;21.60;54.10;;;;;;5092419;28;20412;-65
2020/12/15 06:28:02;;;;;;;3.77;1.83;;;21.70;54.10;;;;;;5093472;28;20467;-66
2020/12/15 06:30:29;;;;;;;2.03;1.83;;;21.70;54.10;;;;;;5093016;28;20498;-66
2020/12/15 06:32:59;;;;;;;2.53;2.10;;;21.60;54.00;;;;;;5074980;28;20522;-66
2020/12/15 06:35:25;;;;;;;2.10;1.90;;;21.60;54.60;;;;;;5093066;28;20414;-66
2020/12/15 06:37:51;;;;;;;1.83;1.63;;;21.60;54.00;;;;;;5094453;28;20404;-66
2020/12/15 06:40:17;;;;;;;3.50;2.20;;;21.60;54.00;;;;;;5097594;28;20620;-65
2020/12/15 06:42:51;;;;;;;3.20;2.10;;;21.60;54.00;;;;;;5096990;28;20645;-66
2020/12/15 06:45:22;;;;;;;2.20;1.90;;;21.60;54.00;;;;;;5097087;28;20981;-66
2020/12/15 06:47:56;;;;;;;2.23;1.80;;;21.60;54.00;;;;;;5097415;28;20392;-67
2020/12/15 06:50:22;;;;;;;2.30;2.10;;;21.60;54.00;;;;;;5097394;28;20411;-66
2020/12/15 06:52:47;;;;;;;3.83;2.90;;;21.60;54.00;;;;;;5096861;28;20470;-65
2020/12/15 06:55:13;;;;;;;2.87;1.90;;;21.60;54.00;;;;;;5096910;28;20212;-66
2020/12/15 06:57:39;;;;;;;2.20;1.80;;;21.60;54.00;;;;;;5097451;28;20205;-66
2020/12/15 07:00:11;;;;;;;2.97;1.83;;;21.70;54.00;;;;;;5096889;28;20403;-65
2020/12/15 07:02:38;;;;;;;2.43;1.97;;;21.70;53.90;;;;;;5096785;28;20284;-65
2020/12/15 07:05:23;;;;;;;3.33;2.40;;;21.70;53.90;;;;;;5096738;28;20440;-65
2020/12/15 07:07:54;;;;;;;3.03;2.13;;;21.80;53.90;;;;;;5097017;28;20952;-66
2020/12/15 07:10:21;;;;;;;3.77;1.60;;;21.80;54.00;;;;;;5096933;28;20486;-66
2020/12/15 07:12:48;;;;;;;2.63;2.40;;;21.80;53.90;;;;;;5096515;28;20514;-66
2020/12/15 07:15:15;;;;;;;2.27;2.00;;;21.80;53.90;;;;;;5096528;28;20540;-66
2020/12/15 07:17:51;;;;;;;2.73;2.40;;;21.90;53.90;;;;;;5096540;28;20897;-66
2020/12/15 07:20:18;;;;;;;3.90;2.40;;;21.90;53.80;;;;;;5096519;28;20958;-65
2020/12/15 07:22:44;;;;;;;3.67;2.30;;;21.90;53.80;;;;;;5096476;28;20454;-65
2020/12/15 07:25:10;;;;;;;2.93;2.40;;;21.90;54.30;;;;;;5096417;28;20399;-66
2020/12/15 07:27:39;;;;;;;4.90;2.60;;;22.00;53.80;;;;;;5096323;28;20165;-65
2020/12/15 07:30:11;;;;;;;3.77;2.63;;;22.00;53.70;;;;;;5096312;28;20406;-66
2020/12/15 07:32:37;;;;;;;2.73;2.10;;;22.00;53.70;;;;;;5096321;28;20438;-66
2020/12/15 07:35:13;;;;;;;4.10;2.50;;;22.00;53.70;;;;;;5096283;28;20403;-64
2020/12/15 07:37:40;;;;;;;3.60;2.70;;;22.10;53.70;;;;;;5096934;28;20748;-65
2020/12/15 07:40:09;;;;;;;3.00;2.70;;;22.00;53.60;;;;;;5096113;28;20521;-66
2020/12/15 07:42:35;;;;;;;4.00;2.97;;;22.10;53.70;;;;;;5095870;28;20451;-65
2020/12/15 07:45:04;;;;;;;3.10;2.77;;;22.10;53.50;;;;;;5096017;28;20407;-64
2020/12/15 07:47:41;;;;;;;3.27;2.90;;;22.10;53.60;;;;;;5095950;28;20407;-65
2020/12/15 07:50:07;;;;;;;3.23;2.70;;;22.10;53.50;;;;;;5095282;28;20411;-65
2020/12/15 07:52:39;;;;;;;6.07;2.90;;;22.10;53.50;;;;;;5095983;28;20466;-65
2020/12/15 07:55:09;;;;;;;2.60;2.40;;;22.10;53.50;;;;;;5095887;28;20512;-63
2020/12/15 07:57:37;;;;;;;2.67;2.47;;;22.10;53.50;;;;;;5077704;28;20400;-65
2020/12/15 08:00:07;;;;;;;3.37;2.80;;;22.20;53.50;;;;;;5095792;28;20431;-63
2020/12/15 08:02:32;;;;;;;3.37;2.77;;;22.10;53.50;;;;;;5095618;28;20519;-66
2020/12/15 08:05:16;;;;;;;3.20;2.83;;;22.10;53.40;;;;;;5095713;28;20384;-66
2020/12/15 08:07:47;;;;;;;3.00;2.60;;;22.20;53.40;;;;;;5095549;28;20170;-66
2020/12/15 08:10:14;;;;;;;3.80;2.90;;;22.10;53.40;;;;;;5095506;28;20407;-64
2020/12/15 08:12:41;;;;;;;4.20;2.77;;;22.20;53.40;;;;;;5095381;28;20515;-65
2020/12/15 08:15:07;;;;;;;3.70;2.73;;;22.20;53.40;;;;;;5095418;28;20420;-65
2020/12/15 08:17:34;;;;;;;3.67;3.20;;;22.20;53.40;;;;;;5095455;28;20754;-65
2020/12/15 08:20:02;;;;;;;3.70;2.80;;;22.20;53.70;;;;;;5095597;28;20404;-66
2020/12/15 08:22:28;;;;;;;4.00;2.80;;;22.20;53.30;;;;;;5095084;28;20544;-65
2020/12/15 08:24:56;;;;;;;3.97;2.97;;;22.20;53.30;;;;;;5095541;28;20862;-65
2020/12/15 08:27:26;;;;;;;3.57;2.70;;;22.30;53.40;;;;;;5095477;28;20412;-65
2020/12/15 08:29:52;;;;;;;3.90;3.20;;;22.30;53.40;;;;;;5095303;28;20436;-65
2020/12/15 08:32:31;;;;;;;3.40;3.00;;;22.20;53.20;;;;;;5094856;28;20528;-65
2020/12/15 08:35:04;;;;;;;5.80;3.00;;;22.30;53.30;;;;;;5076919;28;20424;-65
2020/12/15 08:37:32;;;;;;;5.80;3.03;;;22.30;53.30;;;;;;5095026;28;20487;-65
2020/12/15 08:39:57;;;;;;;3.40;2.53;;;22.30;53.20;;;;;;5095214;28;20403;-65
2020/12/15 08:42:24;;;;;;;5.00;2.93;;;22.30;53.30;;;;;;5094726;28;20500;-65
2020/12/15 08:44:50;;;;;;;3.67;3.23;;;22.30;53.20;;;;;;5094882;28;20197;-65
2020/12/15 08:47:17;;;;;;;3.90;2.93;;;22.30;53.20;;;;;;5094783;28;20431;-65
2020/12/15 08:49:45;;;;;;;3.13;2.77;;;22.30;53.20;;;;;;5094767;28;20248;-65
2020/12/15 08:52:11;;;;;;;3.30;2.83;;;22.40;53.20;;;;;;5094514;28;20428;-65
2020/12/15 08:54:43;;;;;;;3.63;2.77;;;22.40;53.20;;;;;;5094691;28;20436;-65
2020/12/15 08:57:14;;;;;;;2.90;2.43;;;22.40;53.70;;;;;;5093722;28;20443;-65
2020/12/15 08:59:39;;;;;;;4.00;2.90;;;22.40;53.10;;;;;;5094652;28;20422;-66
2020/12/15 09:02:05;;;;;;;4.30;2.87;;;22.40;53.10;;;;;;5074981;28;20460;-65
2020/12/15 09:04:31;;;;;;;3.07;2.77;;;22.40;53.10;;;;;;5094743;28;20240;-65
2020/12/15 09:06:56;;;;;;;3.17;2.87;;;22.40;53.10;;;;;;5094726;28;20173;-66
2020/12/15 09:09:28;;;;;;;4.90;2.80;;;22.40;53.10;;;;;;5094452;28;20172;-66
2020/12/15 09:11:55;;;;;;;3.37;2.50;;;22.40;53.00;;;;;;5076108;28;20200;-65
2020/12/15 09:14:21;;;;;;;3.47;3.00;;;22.40;53.00;;;;;;5094311;28;20537;-65
2020/12/15 09:16:47;;;;;;;3.50;2.97;;;22.40;53.00;;;;;;5076076;28;20442;-66
2020/12/15 09:19:15;;;;;;;3.43;2.83;;;22.40;53.00;;;;;;5094209;28;20969;-65
2020/12/15 09:21:42;;;;;;;3.30;2.67;;;22.40;53.00;;;;;;5094292;28;20815;-64
2020/12/15 09:24:09;;;;;;;3.60;2.70;;;22.50;53.10;;;;;;5094105;28;20778;-65
2020/12/15 09:26:38;;;;;;;4.70;2.57;;;22.50;53.10;;;;;;5094087;28;20399;-66
2020/12/15 09:29:09;;;;;;;4.90;2.90;;;22.50;53.10;;;;;;5093893;28;20503;-65
2020/12/15 09:31:34;;;;;;;3.67;2.80;;;22.50;53.10;;;;;;5093781;28;20458;-65
2020/12/15 09:34:00;;;;;;;3.70;3.30;;;22.50;53.10;;;;;;5094150;28;20886;-65
2020/12/15 09:36:26;;;;;;;3.87;2.73;;;22.50;53.10;;;;;;5075681;28;20938;-66
2020/12/15 09:38:52;;;;;;;2.93;2.30;;;22.50;53.10;;;;;;5094019;28;20169;-65
2020/12/15 09:41:17;;;;;;;3.07;2.30;;;22.50;53.10;;;;;;5093577;28;20848;-66
2020/12/15 09:43:43;;;;;;;2.43;2.20;;;22.50;53.10;;;;;;5093749;28;20249;-65
2020/12/15 09:46:09;;;;;;;4.37;2.70;;;22.50;53.10;;;;;;5075560;28;20173;-66
2020/12/15 09:48:34;;;;;;;3.93;3.07;;;22.50;53.00;;;;;;5093652;28;20208;-65
2020/12/15 09:51:00;;;;;;;4.17;2.60;;;22.50;53.00;;;;;;5093712;28;20166;-66
2020/12/15 09:53:27;;;;;;;5.60;2.70;;;22.50;53.70;;;;;;5093820;28;20197;-64
2020/12/15 09:55:53;;;;;;;3.10;2.80;;;22.50;53.10;;;;;;5093566;28;20432;-64
2020/12/15 09:58:19;;;;;;;3.27;2.70;;;22.50;53.00;;;;;;5093459;28;20415;-64
2020/12/15 10:00:44;;;;;;;4.13;2.93;;;22.50;53.00;;;;;;5093523;28;20772;-66
2020/12/15 10:03:10;;;;;;;4.20;2.37;;;22.50;53.00;;;;;;5093372;28;20205;-66
2020/12/15 10:05:36;;;;;;;3.90;2.60;;;22.50;53.00;;;;;;5075315;28;20170;-66
2020/12/15 10:08:01;;;;;;;5.13;2.63;;;22.50;53.00;;;;;;5093571;28;20166;-64
2020/12/15 10:10:27;;;;;;;6.67;3.30;;;22.50;53.10;;;;;;5093336;28;20166;-66
2020/12/15 10:12:52;;;;;;;3.53;2.90;;;22.50;53.10;;;;;;5092915;28;20189;-64
2020/12/15 10:15:18;;;;;;;4.00;2.80;;;22.50;53.00;;;;;;5093528;28;20177;-66
2020/12/15 10:17:44;;;;;;;3.20;2.63;;;22.50;53.10;;;;;;5093189;28;20212;-65
2020/12/15 10:20:09;;;;;;;4.10;2.97;;;22.50;53.10;;;;;;5093223;28;20178;-66
2020/12/15 10:22:35;;;;;;;3.53;2.83;;;22.50;53.10;;;;;;5093071;28;20250;-66
2020/12/15 10:25:02;;;;;;;3.60;3.30;;;22.50;53.10;;;;;;5092048;28;20561;-66
2020/12/15 10:27:28;;;;;;;3.77;2.80;;;22.50;53.10;;;;;;5093165;28;20400;-66
2020/12/15 10:29:53;;;;;;;4.93;3.20;;;22.50;53.10;;;;;;5093113;28;20396;-66
2020/12/15 10:32:19;;;;;;;3.37;2.87;;;22.50;53.10;;;;;;5092866;28;20461;-66
2020/12/15 10:34:45;;;;;;;3.87;2.90;;;22.50;53.10;;;;;;5093330;28;20177;-66
2020/12/15 10:37:11;;;;;;;4.80;3.00;;;22.50;53.10;;;;;;5093131;28;20224;-65
2020/12/15 10:39:37;;;;;;;4.90;3.23;;;22.50;53.10;;;;;;5093047;28;20403;-66
2020/12/15 10:42:02;;;;;;;4.57;2.97;;;22.50;53.00;;;;;;5092791;28;20201;-66
2020/12/15 10:44:28;;;;;;;5.27;3.20;;;22.50;53.00;;;;;;5093181;28;20206;-64
2020/12/15 10:46:54;;;;;;;2.80;2.50;;;22.50;53.00;;;;;;5092903;28;20545;-65
2020/12/15 10:49:20;;;;;;;4.47;2.90;;;22.40;52.90;;;;;;5092817;28;20173;-66
2020/12/15 10:51:49;;;;;;;4.53;3.20;;;22.40;52.90;;;;;;5092939;28;20434;-65
2020/12/15 10:54:15;;;;;;;3.33;2.90;;;22.50;53.00;;;;;;5093123;28;20163;-66
2020/12/15 10:56:42;;;;;;;3.93;3.27;;;22.50;53.00;;;;;;5092748;28;20948;-66
2020/12/15 10:59:08;;;;;;;4.03;3.57;;;22.50;53.10;;;;;;5092891;28;20411;-66
2020/12/15 11:01:34;;;;;;;3.90;2.73;;;22.40;53.00;;;;;;5092929;28;20482;-65
2020/12/15 11:03:59;;;;;;;3.50;2.83;;;22.40;52.90;;;;;;5074727;28;20423;-66
2020/12/15 11:06:25;;;;;;;3.80;3.40;;;22.40;52.90;;;;;;5092803;28;20165;-66
2020/12/15 11:08:52;;;;;;;5.23;2.87;;;22.40;53.00;;;;;;5092947;28;20587;-66
2020/12/15 11:11:17;;;;;;;2.47;2.20;;;22.40;52.90;;;;;;5092878;28;20498;-66
2020/12/15 11:13:43;;;;;;;3.50;3.17;;;22.50;53.00;;;;;;5092637;28;20836;-66
2020/12/15 11:16:09;;;;;;;4.03;2.90;;;22.40;52.90;;;;;;5092649;28;20169;-65
2020/12/15 11:18:35;;;;;;;3.20;2.70;;;22.50;53.00;;;;;;5092707;28;20166;-66
2020/12/15 11:21:00;;;;;;;4.20;3.03;;;22.40;53.00;;;;;;5092686;28;20174;-66
2020/12/15 11:23:26;;;;;;;4.53;2.40;;;22.40;52.90;;;;;;5074400;28;20213;-66
2020/12/15 11:25:52;;;;;;;4.67;3.00;;;22.40;52.90;;;;;;5095329;28;20176;-66
2020/12/15 11:28:17;;;;;;;3.60;3.03;;;22.50;53.00;;;;;;5096600;28;20180;-66
2020/12/15 11:30:43;;;;;;;3.47;2.97;;;22.40;52.90;;;;;;5096310;28;20261;-65
2020/12/15 11:33:09;;;;;;;2.93;2.63;;;22.50;53.00;;;;;;5096207;28;20193;-66
2020/12/15 11:35:35;;;;;;;4.87;2.90;;;22.40;52.90;;;;;;5096229;28;20407;-66
2020/12/15 11:38:04;;;;;;;5.00;3.37;;;22.40;52.90;;;;;;5096496;28;20170;-66
2020/12/15 11:40:30;;;;;;;4.50;2.83;;;22.40;52.90;;;;;;5096180;28;20178;-66
2020/12/15 11:42:57;;;;;;;4.47;3.20;;;22.40;52.90;;;;;;5095936;28;20516;-66
2020/12/15 11:45:24;;;;;;;3.10;2.37;;;22.40;52.90;;;;;;5096073;28;20408;-65
2020/12/15 11:47:51;;;;;;;3.83;2.37;;;22.40;52.90;;;;;;5096267;28;20461;-66
2020/12/15 11:50:18;;;;;;;3.97;3.03;;;22.40;52.90;;;;;;5095946;28;20396;-64
2020/12/15 11:52:44;;;;;;;2.80;2.60;;;22.40;52.90;;;;;;5095858;28;20424;-65
2020/12/15 11:55:09;;;;;;;5.07;2.80;;;22.40;52.90;;;;;;5095870;28;20476;-65
2020/12/15 11:57:35;;;;;;;3.23;2.80;;;22.40;52.90;;;;;;5095840;28;20209;-66
2020/12/15 12:00:04;;;;;;;2.93;2.63;;;22.40;52.90;;;;;;5095777;28;20173;-65
2020/12/15 12:02:30;;;;;;;3.13;2.83;;;22.40;52.90;;;;;;5095614;28;20251;-65
2020/12/15 12:04:55;;;;;;;3.30;2.60;;;22.40;52.80;;;;;;5095930;28;20411;-66
2020/12/15 12:07:21;;;;;;;5.70;3.37;;;22.50;52.90;;;;;;5095822;28;20494;-65
2020/12/15 12:09:47;;;;;;;4.00;2.40;;;22.40;52.80;;;;;;5095571;28;20641;-65
2020/12/15 12:12:12;;;;;;;3.00;2.40;;;22.40;52.80;;;;;;5095429;28;20231;-66
2020/12/15 12:14:38;;;;;;;2.63;2.40;;;22.40;52.80;;;;;;5095721;28;20177;-66
2020/12/15 12:17:03;;;;;;;5.73;3.10;;;22.50;52.90;;;;;;5095690;28;20310;-65
2020/12/15 12:19:29;;;;;;;3.47;3.07;;;22.40;53.40;;;;;;5095353;28;20178;-66
2020/12/15 12:21:54;;;;;;;2.83;2.50;;;22.50;52.90;;;;;;5095469;28;20212;-65
2020/12/15 12:24:20;;;;;;;3.77;3.17;;;22.40;52.80;;;;;;5095254;28;20633;-65
2020/12/15 12:26:49;;;;;;;2.90;2.60;;;22.40;52.80;;;;;;5095268;28;20170;-66
2020/12/15 12:29:15;;;;;;;3.37;2.80;;;22.40;52.80;;;;;;5095397;28;20223;-65
2020/12/15 12:31:40;;;;;;;3.90;3.10;;;22.40;52.80;;;;;;5094977;28;20451;-65
2020/12/15 12:34:06;;;;;;;3.10;2.80;;;22.50;52.70;;;;;;5095111;28;20169;-63
2020/12/15 12:36:34;;;;;;;4.03;3.03;;;22.40;52.70;;;;;;5094873;28;20174;-65
2020/12/15 12:39:00;;;;;;;3.50;3.20;;;22.40;52.80;;;;;;5095296;28;20521;-65
2020/12/15 12:41:26;;;;;;;2.57;2.33;;;22.40;52.80;;;;;;5094784;28;20416;-65
2020/12/15 12:43:53;;;;;;;3.20;2.87;;;22.40;52.80;;;;;;5094816;28;20518;-65
2020/12/15 12:46:19;;;;;;;4.47;2.67;;;22.40;52.80;;;;;;5094851;28;20232;-65